sensor_id;sensor_type;location;lat;lon;timestamp;P1;durP1;ratioP1;P2;durP2;ratioP2
15393;SDS011;7795;47.986;11.868;2022-08-01T00:02:01;1.73;;;1.60;;
15393;SDS011;7795;47.986;11.868;2022-08-01T00:04:26;1.37;;;1.27;;
15393;SDS011;7795;47.986;11.868;2022-08-01T00:06:52;1.53;;;1.43;;
15393;SDS011;7795;47.986;11.868;2022-08-01T00:09:18;3.73;;;1.80;;
15393;SDS011;7795;47.986;11.868;2022-08-01T00:11:44;1.73;;;1.63;;
15393;SDS011;7795;47.986;11.868;2022-08-01T00:14:10;1.53;;;1.43;;
15393;SDS011;7795;47.986;11.868;2022-08-01T00:16:37;2.60;;;1.57;;
15393;SDS011;7795;47.986;11.868;2022-08-01T00:19:03;2.40;;;1.73;;
15393;SDS011;7795;47.986;11.868;2022-08-01T00:21:29;2.23;;;1.30;;
15393;SDS011;7795;47.986;11.868;2022-08-01T00:23:54;2.40;;;1.43;;
15393;SDS011;7795;47.986;11.868;2022-08-01T00:26:20;1.63;;;1.53;;
15393;SDS011;7795;47.986;11.868;2022-08-01T00:28:46;2.27;;;1.60;;
15393;SDS011;7795;47.986;11.868;2022-08-01T00:31:12;1.67;;;1.50;;
15393;SDS011;7795;47.986;11.868;2022-08-01T00:33:39;1.60;;;1.50;;
15393;SDS011;7795;47.986;11.868;2022-08-01T00:36:05;5.83;;;1.67;;
15393;SDS011;7795;47.986;11.868;2022-08-01T00:38:30;1.53;;;1.43;;
15393;SDS011;7795;47.986;11.868;2022-08-01T00:40:56;1.93;;;1.73;;
15393;SDS011;7795;47.986;11.868;2022-08-01T00:43:22;1.83;;;1.63;;
15393;SDS011;7795;47.986;11.868;2022-08-01T00:45:48;1.43;;;1.33;;
15393;SDS011;7795;47.986;11.868;2022-08-01T00:48:14;2.23;;;1.37;;
15393;SDS011;7795;47.986;11.868;2022-08-01T00:50:41;1.63;;;1.53;;
15393;SDS011;7795;47.986;11.868;2022-08-01T00:53:07;2.50;;;1.57;;
15393;SDS011;7795;47.986;11.868;2022-08-01T00:58:19;1.53;;;1.43;;
15393;SDS011;7795;47.986;11.868;2022-08-01T01:00:45;1.63;;;1.53;;
15393;SDS011;7795;47.986;11.868;2022-08-01T01:03:11;1.67;;;1.37;;
15393;SDS011;7795;47.986;11.868;2022-08-01T01:05:40;2.50;;;1.37;;
15393;SDS011;7795;47.986;11.868;2022-08-01T01:08:13;1.63;;;1.20;;
15393;SDS011;7795;47.986;11.868;2022-08-01T01:10:45;1.50;;;1.40;;
15393;SDS011;7795;47.986;11.868;2022-08-01T01:13:16;1.90;;;1.50;;
15393;SDS011;7795;47.986;11.868;2022-08-01T01:15:49;1.83;;;1.50;;
15393;SDS011;7795;47.986;11.868;2022-08-01T01:18:23;1.97;;;1.50;;
15393;SDS011;7795;47.986;11.868;2022-08-01T01:20:53;1.47;;;1.37;;
15393;SDS011;7795;47.986;11.868;2022-08-01T01:23:32;2.17;;;1.90;;
15393;SDS011;7795;47.986;11.868;2022-08-01T01:26:17;1.87;;;1.73;;
15393;SDS011;7795;47.986;11.868;2022-08-01T01:28:58;1.60;;;1.33;;
15393;SDS011;7795;47.986;11.868;2022-08-01T01:31:28;2.33;;;1.40;;
15393;SDS011;7795;47.986;11.868;2022-08-01T01:33:57;1.83;;;1.17;;
15393;SDS011;7795;47.986;11.868;2022-08-01T01:36:27;1.77;;;1.30;;
15393;SDS011;7795;47.986;11.868;2022-08-01T01:38:55;2.07;;;1.50;;
15393;SDS011;7795;47.986;11.868;2022-08-01T01:41:21;1.73;;;1.60;;
15393;SDS011;7795;47.986;11.868;2022-08-01T01:43:48;1.50;;;1.30;;
15393;SDS011;7795;47.986;11.868;2022-08-01T01:46:17;1.50;;;1.40;;
15393;SDS011;7795;47.986;11.868;2022-08-01T01:48:48;1.70;;;1.43;;
15393;SDS011;7795;47.986;11.868;2022-08-01T01:51:15;1.80;;;1.50;;
15393;SDS011;7795;47.986;11.868;2022-08-01T01:53:42;1.43;;;1.20;;
15393;SDS011;7795;47.986;11.868;2022-08-01T01:56:09;2.60;;;1.60;;
15393;SDS011;7795;47.986;11.868;2022-08-01T01:58:37;1.53;;;1.40;;
15393;SDS011;7795;47.986;11.868;2022-08-01T02:01:04;1.50;;;1.40;;
15393;SDS011;7795;47.986;11.868;2022-08-01T02:03:33;1.50;;;1.40;;
15393;SDS011;7795;47.986;11.868;2022-08-01T02:06:01;2.10;;;1.40;;
15393;SDS011;7795;47.986;11.868;2022-08-01T02:08:28;1.40;;;1.30;;
15393;SDS011;7795;47.986;11.868;2022-08-01T02:10:56;1.50;;;1.20;;
15393;SDS011;7795;47.986;11.868;2022-08-01T02:13:42;2.60;;;1.50;;
15393;SDS011;7795;47.986;11.868;2022-08-01T02:16:09;1.63;;;1.47;;
15393;SDS011;7795;47.986;11.868;2022-08-01T02:18:37;2.13;;;1.80;;
15393;SDS011;7795;47.986;11.868;2022-08-01T02:21:04;2.20;;;1.67;;
15393;SDS011;7795;47.986;11.868;2022-08-01T02:23:34;2.40;;;1.77;;
15393;SDS011;7795;47.986;11.868;2022-08-01T02:26:02;1.83;;;1.07;;
15393;SDS011;7795;47.986;11.868;2022-08-01T02:28:35;2.00;;;1.30;;
15393;SDS011;7795;47.986;11.868;2022-08-01T02:31:06;2.00;;;1.60;;
15393;SDS011;7795;47.986;11.868;2022-08-01T02:33:38;1.93;;;1.60;;
15393;SDS011;7795;47.986;11.868;2022-08-01T02:36:06;1.37;;;1.20;;
15393;SDS011;7795;47.986;11.868;2022-08-01T02:38:33;1.50;;;1.40;;
15393;SDS011;7795;47.986;11.868;2022-08-01T02:41:03;2.07;;;1.70;;
15393;SDS011;7795;47.986;11.868;2022-08-01T02:43:33;2.13;;;1.50;;
15393;SDS011;7795;47.986;11.868;2022-08-01T02:46:02;1.97;;;1.60;;
15393;SDS011;7795;47.986;11.868;2022-08-01T02:48:31;3.37;;;1.73;;
15393;SDS011;7795;47.986;11.868;2022-08-01T02:51:01;1.73;;;1.57;;
15393;SDS011;7795;47.986;11.868;2022-08-01T02:53:28;1.70;;;1.47;;
15393;SDS011;7795;47.986;11.868;2022-08-01T02:55:56;2.10;;;2.00;;
15393;SDS011;7795;47.986;11.868;2022-08-01T02:58:23;2.03;;;1.83;;
15393;SDS011;7795;47.986;11.868;2022-08-01T03:00:50;4.30;;;1.60;;
15393;SDS011;7795;47.986;11.868;2022-08-01T03:03:17;1.90;;;1.70;;
15393;SDS011;7795;47.986;11.868;2022-08-01T03:05:43;1.70;;;1.60;;
15393;SDS011;7795;47.986;11.868;2022-08-01T03:08:12;1.47;;;1.37;;
15393;SDS011;7795;47.986;11.868;2022-08-01T03:10:41;1.60;;;1.50;;
15393;SDS011;7795;47.986;11.868;2022-08-01T03:13:09;2.33;;;1.77;;
15393;SDS011;7795;47.986;11.868;2022-08-01T03:15:37;1.50;;;1.37;;
15393;SDS011;7795;47.986;11.868;2022-08-01T03:18:06;1.60;;;1.50;;
15393;SDS011;7795;47.986;11.868;2022-08-01T03:20:34;1.87;;;1.77;;
15393;SDS011;7795;47.986;11.868;2022-08-01T03:23:01;1.80;;;1.70;;
15393;SDS011;7795;47.986;11.868;2022-08-01T03:25:30;1.60;;;1.50;;
15393;SDS011;7795;47.986;11.868;2022-08-01T03:27:58;2.50;;;1.93;;
15393;SDS011;7795;47.986;11.868;2022-08-01T03:30:27;1.87;;;1.77;;
15393;SDS011;7795;47.986;11.868;2022-08-01T03:32:55;1.60;;;1.50;;
15393;SDS011;7795;47.986;11.868;2022-08-01T03:35:21;1.73;;;1.30;;
15393;SDS011;7795;47.986;11.868;2022-08-01T03:37:51;1.70;;;1.60;;
15393;SDS011;7795;47.986;11.868;2022-08-01T03:40:20;1.67;;;1.53;;
15393;SDS011;7795;47.986;11.868;2022-08-01T03:42:52;2.33;;;1.60;;
15393;SDS011;7795;47.986;11.868;2022-08-01T03:45:24;3.07;;;1.70;;
15393;SDS011;7795;47.986;11.868;2022-08-01T03:47:54;1.87;;;1.60;;
15393;SDS011;7795;47.986;11.868;2022-08-01T03:50:24;1.93;;;1.70;;
15393;SDS011;7795;47.986;11.868;2022-08-01T03:52:50;2.57;;;1.60;;
15393;SDS011;7795;47.986;11.868;2022-08-01T03:55:18;2.73;;;1.77;;
15393;SDS011;7795;47.986;11.868;2022-08-01T03:57:46;3.20;;;1.80;;
15393;SDS011;7795;47.986;11.868;2022-08-01T04:00:14;2.67;;;1.73;;
15393;SDS011;7795;47.986;11.868;2022-08-01T04:02:43;1.73;;;1.63;;
15393;SDS011;7795;47.986;11.868;2022-08-01T04:05:10;1.77;;;1.67;;
15393;SDS011;7795;47.986;11.868;2022-08-01T04:07:36;1.70;;;1.57;;
15393;SDS011;7795;47.986;11.868;2022-08-01T04:10:04;1.97;;;1.67;;
15393;SDS011;7795;47.986;11.868;2022-08-01T04:12:30;1.60;;;1.50;;
15393;SDS011;7795;47.986;11.868;2022-08-01T04:14:57;2.60;;;1.40;;
15393;SDS011;7795;47.986;11.868;2022-08-01T04:17:25;2.23;;;1.90;;
15393;SDS011;7795;47.986;11.868;2022-08-01T04:19:50;2.40;;;2.00;;
15393;SDS011;7795;47.986;11.868;2022-08-01T04:22:16;3.37;;;1.53;;
15393;SDS011;7795;47.986;11.868;2022-08-01T04:24:44;2.43;;;1.60;;
15393;SDS011;7795;47.986;11.868;2022-08-01T04:27:16;2.90;;;1.83;;
15393;SDS011;7795;47.986;11.868;2022-08-01T04:29:47;1.87;;;1.60;;
15393;SDS011;7795;47.986;11.868;2022-08-01T04:32:15;2.63;;;1.80;;
15393;SDS011;7795;47.986;11.868;2022-08-01T04:34:45;1.97;;;1.70;;
15393;SDS011;7795;47.986;11.868;2022-08-01T04:37:12;1.57;;;1.43;;
15393;SDS011;7795;47.986;11.868;2022-08-01T04:39:41;2.10;;;1.47;;
15393;SDS011;7795;47.986;11.868;2022-08-01T04:42:09;2.00;;;1.73;;
15393;SDS011;7795;47.986;11.868;2022-08-01T04:44:36;2.30;;;1.70;;
15393;SDS011;7795;47.986;11.868;2022-08-01T04:47:02;2.63;;;1.80;;
15393;SDS011;7795;47.986;11.868;2022-08-01T04:49:30;2.03;;;1.70;;
15393;SDS011;7795;47.986;11.868;2022-08-01T04:51:58;1.93;;;1.70;;
15393;SDS011;7795;47.986;11.868;2022-08-01T04:54:25;1.93;;;1.67;;
15393;SDS011;7795;47.986;11.868;2022-08-01T04:56:51;1.53;;;1.43;;
15393;SDS011;7795;47.986;11.868;2022-08-01T04:59:18;2.37;;;1.90;;
15393;SDS011;7795;47.986;11.868;2022-08-01T05:02:03;3.30;;;1.93;;
15393;SDS011;7795;47.986;11.868;2022-08-01T05:04:28;1.93;;;1.30;;
15393;SDS011;7795;47.986;11.868;2022-08-01T05:06:54;2.17;;;1.50;;
15393;SDS011;7795;47.986;11.868;2022-08-01T05:09:21;2.03;;;1.63;;
15393;SDS011;7795;47.986;11.868;2022-08-01T05:11:47;2.00;;;1.80;;
15393;SDS011;7795;47.986;11.868;2022-08-01T05:14:13;1.63;;;1.53;;
15393;SDS011;7795;47.986;11.868;2022-08-01T05:16:38;2.43;;;1.77;;
15393;SDS011;7795;47.986;11.868;2022-08-01T05:19:04;2.67;;;2.00;;
15393;SDS011;7795;47.986;11.868;2022-08-01T05:21:30;2.20;;;1.70;;
15393;SDS011;7795;47.986;11.868;2022-08-01T05:23:56;2.10;;;1.50;;
15393;SDS011;7795;47.986;11.868;2022-08-01T05:26:24;2.53;;;1.83;;
15393;SDS011;7795;47.986;11.868;2022-08-01T05:28:50;2.13;;;1.40;;
15393;SDS011;7795;47.986;11.868;2022-08-01T05:31:15;1.73;;;1.63;;
15393;SDS011;7795;47.986;11.868;2022-08-01T05:33:41;1.60;;;1.50;;
15393;SDS011;7795;47.986;11.868;2022-08-01T05:36:07;3.47;;;1.70;;
15393;SDS011;7795;47.986;11.868;2022-08-01T05:38:33;2.77;;;1.80;;
15393;SDS011;7795;47.986;11.868;2022-08-01T05:40:58;5.43;;;2.10;;
15393;SDS011;7795;47.986;11.868;2022-08-01T05:43:26;2.40;;;1.60;;
15393;SDS011;7795;47.986;11.868;2022-08-01T05:45:51;2.50;;;1.67;;
15393;SDS011;7795;47.986;11.868;2022-08-01T05:48:17;3.07;;;1.60;;
15393;SDS011;7795;47.986;11.868;2022-08-01T05:50:43;3.83;;;2.10;;
15393;SDS011;7795;47.986;11.868;2022-08-01T05:53:09;2.57;;;1.77;;
15393;SDS011;7795;47.986;11.868;2022-08-01T05:55:35;2.57;;;1.60;;
15393;SDS011;7795;47.986;11.868;2022-08-01T05:58:01;2.10;;;1.90;;
15393;SDS011;7795;47.986;11.868;2022-08-01T06:00:28;2.13;;;1.87;;
15393;SDS011;7795;47.986;11.868;2022-08-01T06:02:54;2.15;;;1.67;;
15393;SDS011;7795;47.986;11.868;2022-08-01T06:05:19;1.63;;;1.52;;
15393;SDS011;7795;47.986;11.868;2022-08-01T06:07:45;2.90;;;1.67;;
15393;SDS011;7795;47.986;11.868;2022-08-01T06:10:11;2.50;;;1.63;;
15393;SDS011;7795;47.986;11.868;2022-08-01T06:12:37;2.33;;;1.65;;
15393;SDS011;7795;47.986;11.868;2022-08-01T06:15:03;4.22;;;1.38;;
15393;SDS011;7795;47.986;11.868;2022-08-01T06:17:31;3.05;;;2.00;;
15393;SDS011;7795;47.986;11.868;2022-08-01T06:19:57;1.80;;;1.70;;
15393;SDS011;7795;47.986;11.868;2022-08-01T06:22:23;2.00;;;1.70;;
15393;SDS011;7795;47.986;11.868;2022-08-01T06:24:48;4.00;;;2.13;;
15393;SDS011;7795;47.986;11.868;2022-08-01T06:27:14;1.83;;;1.70;;
15393;SDS011;7795;47.986;11.868;2022-08-01T06:29:40;1.92;;;1.70;;
15393;SDS011;7795;47.986;11.868;2022-08-01T06:32:08;1.95;;;1.85;;
15393;SDS011;7795;47.986;11.868;2022-08-01T06:34:35;2.60;;;1.90;;
15393;SDS011;7795;47.986;11.868;2022-08-01T06:37:01;2.50;;;1.70;;
15393;SDS011;7795;47.986;11.868;2022-08-01T06:39:27;2.67;;;2.00;;
15393;SDS011;7795;47.986;11.868;2022-08-01T06:41:53;1.95;;;1.83;;
15393;SDS011;7795;47.986;11.868;2022-08-01T06:44:18;2.35;;;2.08;;
15393;SDS011;7795;47.986;11.868;2022-08-01T06:46:44;2.22;;;1.90;;
15393;SDS011;7795;47.986;11.868;2022-08-01T06:49:10;1.90;;;1.70;;
15393;SDS011;7795;47.986;11.868;2022-08-01T06:51:37;2.80;;;2.03;;
15393;SDS011;7795;47.986;11.868;2022-08-01T06:54:03;3.60;;;1.98;;
15393;SDS011;7795;47.986;11.868;2022-08-01T06:56:29;2.08;;;1.83;;
15393;SDS011;7795;47.986;11.868;2022-08-01T06:58:55;2.10;;;1.90;;
15393;SDS011;7795;47.986;11.868;2022-08-01T07:01:25;6.75;;;2.00;;
15393;SDS011;7795;47.986;11.868;2022-08-01T07:03:51;2.88;;;1.80;;
15393;SDS011;7795;47.986;11.868;2022-08-01T07:06:17;3.55;;;2.28;;
15393;SDS011;7795;47.986;11.868;2022-08-01T07:08:44;2.97;;;1.92;;
15393;SDS011;7795;47.986;11.868;2022-08-01T07:11:10;2.67;;;2.03;;
15393;SDS011;7795;47.986;11.868;2022-08-01T07:13:36;2.45;;;2.08;;
15393;SDS011;7795;47.986;11.868;2022-08-01T07:16:02;1.90;;;1.80;;
15393;SDS011;7795;47.986;11.868;2022-08-01T07:18:28;1.63;;;1.52;;
15393;SDS011;7795;47.986;11.868;2022-08-01T07:20:53;3.25;;;2.05;;
15393;SDS011;7795;47.986;11.868;2022-08-01T07:23:19;1.90;;;1.80;;
15393;SDS011;7795;47.986;11.868;2022-08-01T07:25:47;5.85;;;4.65;;
15393;SDS011;7795;47.986;11.868;2022-08-01T07:28:14;4.32;;;3.70;;
15393;SDS011;7795;47.986;11.868;2022-08-01T07:30:40;4.25;;;3.38;;
15393;SDS011;7795;47.986;11.868;2022-08-01T07:33:07;3.80;;;2.60;;
15393;SDS011;7795;47.986;11.868;2022-08-01T07:35:33;2.80;;;2.60;;
15393;SDS011;7795;47.986;11.868;2022-08-01T07:37:59;2.78;;;2.05;;
15393;SDS011;7795;47.986;11.868;2022-08-01T07:40:25;3.47;;;2.22;;
15393;SDS011;7795;47.986;11.868;2022-08-01T07:42:52;3.22;;;2.17;;
15393;SDS011;7795;47.986;11.868;2022-08-01T07:45:18;3.50;;;1.90;;
15393;SDS011;7795;47.986;11.868;2022-08-01T07:47:44;2.00;;;1.80;;
15393;SDS011;7795;47.986;11.868;2022-08-01T07:50:10;3.90;;;2.10;;
15393;SDS011;7795;47.986;11.868;2022-08-01T07:52:37;2.67;;;1.85;;
15393;SDS011;7795;47.986;11.868;2022-08-01T07:55:03;3.70;;;2.10;;
15393;SDS011;7795;47.986;11.868;2022-08-01T07:57:30;2.00;;;1.90;;
15393;SDS011;7795;47.986;11.868;2022-08-01T07:59:57;2.47;;;1.77;;
15393;SDS011;7795;47.986;11.868;2022-08-01T08:02:23;2.70;;;2.08;;
15393;SDS011;7795;47.986;11.868;2022-08-01T08:04:49;2.10;;;1.90;;
15393;SDS011;7795;47.986;11.868;2022-08-01T08:07:14;2.15;;;1.90;;
15393;SDS011;7795;47.986;11.868;2022-08-01T08:09:40;2.72;;;1.90;;
15393;SDS011;7795;47.986;11.868;2022-08-01T08:12:06;2.40;;;2.05;;
15393;SDS011;7795;47.986;11.868;2022-08-01T08:14:32;2.15;;;1.85;;
15393;SDS011;7795;47.986;11.868;2022-08-01T08:17:00;1.90;;;1.80;;
15393;SDS011;7795;47.986;11.868;2022-08-01T08:19:26;1.95;;;1.75;;
15393;SDS011;7795;47.986;11.868;2022-08-01T08:21:51;1.80;;;1.48;;
15393;SDS011;7795;47.986;11.868;2022-08-01T08:24:17;2.03;;;1.88;;
15393;SDS011;7795;47.986;11.868;2022-08-01T08:26:46;3.83;;;2.45;;
15393;SDS011;7795;47.986;11.868;2022-08-01T08:29:12;2.03;;;1.90;;
15393;SDS011;7795;47.986;11.868;2022-08-01T08:31:38;2.22;;;2.03;;
15393;SDS011;7795;47.986;11.868;2022-08-01T08:34:05;2.20;;;1.90;;
15393;SDS011;7795;47.986;11.868;2022-08-01T08:36:31;2.85;;;1.80;;
15393;SDS011;7795;47.986;11.868;2022-08-01T08:38:57;1.75;;;1.65;;
15393;SDS011;7795;47.986;11.868;2022-08-01T08:41:22;2.05;;;1.60;;
15393;SDS011;7795;47.986;11.868;2022-08-01T08:43:48;2.17;;;1.80;;
15393;SDS011;7795;47.986;11.868;2022-08-01T08:46:14;4.03;;;1.88;;
15393;SDS011;7795;47.986;11.868;2022-08-01T08:48:41;1.60;;;1.50;;
15393;SDS011;7795;47.986;11.868;2022-08-01T08:51:08;2.13;;;1.92;;
15393;SDS011;7795;47.986;11.868;2022-08-01T08:53:37;1.85;;;1.65;;
15393;SDS011;7795;47.986;11.868;2022-08-01T08:56:08;2.15;;;1.65;;
15393;SDS011;7795;47.986;11.868;2022-08-01T08:58:35;1.90;;;1.70;;
15393;SDS011;7795;47.986;11.868;2022-08-01T09:01:04;3.45;;;1.70;;
15393;SDS011;7795;47.986;11.868;2022-08-01T09:03:30;1.60;;;1.50;;
15393;SDS011;7795;47.986;11.868;2022-08-01T09:05:56;1.85;;;1.45;;
15393;SDS011;7795;47.986;11.868;2022-08-01T09:08:23;1.65;;;1.45;;
15393;SDS011;7795;47.986;11.868;2022-08-01T09:10:49;1.65;;;1.48;;
15393;SDS011;7795;47.986;11.868;2022-08-01T09:13:14;2.15;;;1.48;;
15393;SDS011;7795;47.986;11.868;2022-08-01T09:15:41;2.00;;;1.45;;
15393;SDS011;7795;47.986;11.868;2022-08-01T09:18:08;1.75;;;1.40;;
15393;SDS011;7795;47.986;11.868;2022-08-01T09:20:50;1.95;;;1.70;;
15393;SDS011;7795;47.986;11.868;2022-08-01T09:26:12;2.42;;;2.00;;
15393;SDS011;7795;47.986;11.868;2022-08-01T09:28:40;2.30;;;1.42;;
15393;SDS011;7795;47.986;11.868;2022-08-01T09:31:07;1.60;;;1.50;;
15393;SDS011;7795;47.986;11.868;2022-08-01T09:33:47;1.50;;;1.30;;
15393;SDS011;7795;47.986;11.868;2022-08-01T09:36:14;1.83;;;1.33;;
15393;SDS011;7795;47.986;11.868;2022-08-01T09:38:40;1.02;;;0.95;;
15393;SDS011;7795;47.986;11.868;2022-08-01T09:41:05;1.10;;;1.00;;
15393;SDS011;7795;47.986;11.868;2022-08-01T09:43:34;1.63;;;1.27;;
15393;SDS011;7795;47.986;11.868;2022-08-01T09:46:03;2.47;;;1.33;;
15393;SDS011;7795;47.986;11.868;2022-08-01T09:48:30;1.55;;;1.45;;
15393;SDS011;7795;47.986;11.868;2022-08-01T09:50:58;1.60;;;1.48;;
15393;SDS011;7795;47.986;11.868;2022-08-01T09:53:24;1.67;;;1.42;;
15393;SDS011;7795;47.986;11.868;2022-08-01T09:55:50;2.63;;;1.30;;
15393;SDS011;7795;47.986;11.868;2022-08-01T09:58:17;1.65;;;1.55;;
15393;SDS011;7795;47.986;11.868;2022-08-01T10:00:57;1.67;;;1.20;;
15393;SDS011;7795;47.986;11.868;2022-08-01T10:03:25;3.78;;;1.50;;
15393;SDS011;7795;47.986;11.868;2022-08-01T10:05:52;2.00;;;1.45;;
15393;SDS011;7795;47.986;11.868;2022-08-01T10:08:19;2.35;;;1.60;;
15393;SDS011;7795;47.986;11.868;2022-08-01T10:13:31;1.33;;;1.23;;
15393;SDS011;7795;47.986;11.868;2022-08-01T10:15:59;1.60;;;1.27;;
15393;SDS011;7795;47.986;11.868;2022-08-01T10:18:26;2.00;;;0.95;;
15393;SDS011;7795;47.986;11.868;2022-08-01T10:20:53;1.13;;;1.08;;
15393;SDS011;7795;47.986;11.868;2022-08-01T10:23:19;4.57;;;1.30;;
15393;SDS011;7795;47.986;11.868;2022-08-01T10:25:46;2.78;;;1.30;;
15393;SDS011;7795;47.986;11.868;2022-08-01T10:28:14;1.95;;;1.30;;
15393;SDS011;7795;47.986;11.868;2022-08-01T10:30:41;1.67;;;1.10;;
15393;SDS011;7795;47.986;11.868;2022-08-01T10:33:09;1.75;;;1.27;;
15393;SDS011;7795;47.986;11.868;2022-08-01T10:35:36;2.92;;;1.33;;
15393;SDS011;7795;47.986;11.868;2022-08-01T10:38:03;1.33;;;0.90;;
15393;SDS011;7795;47.986;11.868;2022-08-01T10:40:29;1.50;;;0.90;;
15393;SDS011;7795;47.986;11.868;2022-08-01T10:42:55;2.17;;;1.30;;
15393;SDS011;7795;47.986;11.868;2022-08-01T10:45:21;2.13;;;1.10;;
15393;SDS011;7795;47.986;11.868;2022-08-01T10:47:51;1.83;;;1.10;;
15393;SDS011;7795;47.986;11.868;2022-08-01T10:50:27;2.75;;;1.10;;
15393;SDS011;7795;47.986;11.868;2022-08-01T10:53:12;1.30;;;1.20;;
15393;SDS011;7795;47.986;11.868;2022-08-01T10:55:49;1.63;;;1.20;;
15393;SDS011;7795;47.986;11.868;2022-08-01T10:58:20;1.15;;;0.90;;
15393;SDS011;7795;47.986;11.868;2022-08-01T11:00:47;1.45;;;1.17;;
15393;SDS011;7795;47.986;11.868;2022-08-01T11:03:13;1.30;;;1.10;;
15393;SDS011;7795;47.986;11.868;2022-08-01T11:05:40;1.25;;;0.88;;
15393;SDS011;7795;47.986;11.868;2022-08-01T11:08:09;1.42;;;1.08;;
15393;SDS011;7795;47.986;11.868;2022-08-01T11:10:45;1.00;;;0.88;;
15393;SDS011;7795;47.986;11.868;2022-08-01T11:13:12;1.00;;;0.90;;
15393;SDS011;7795;47.986;11.868;2022-08-01T11:15:38;1.08;;;0.98;;
15393;SDS011;7795;47.986;11.868;2022-08-01T11:20:57;0.93;;;0.90;;
15393;SDS011;7795;47.986;11.868;2022-08-01T11:23:25;0.80;;;0.80;;
15393;SDS011;7795;47.986;11.868;2022-08-01T11:28:48;0.80;;;0.80;;
15393;SDS011;7795;47.986;11.868;2022-08-01T11:31:36;1.15;;;0.70;;
15393;SDS011;7795;47.986;11.868;2022-08-01T11:34:02;1.38;;;1.15;;
15393;SDS011;7795;47.986;11.868;2022-08-01T11:36:29;1.48;;;1.13;;
15393;SDS011;7795;47.986;11.868;2022-08-01T11:41:45;1.15;;;0.75;;
15393;SDS011;7795;47.986;11.868;2022-08-01T11:44:13;1.25;;;0.82;;
15393;SDS011;7795;47.986;11.868;2022-08-01T11:49:44;1.15;;;0.70;;
15393;SDS011;7795;47.986;11.868;2022-08-01T11:52:14;1.60;;;0.90;;
15393;SDS011;7795;47.986;11.868;2022-08-01T11:54:45;0.65;;;0.65;;
15393;SDS011;7795;47.986;11.868;2022-08-01T11:57:13;1.40;;;0.88;;
15393;SDS011;7795;47.986;11.868;2022-08-01T11:59:41;1.48;;;0.60;;
15393;SDS011;7795;47.986;11.868;2022-08-01T12:02:15;1.67;;;0.68;;
15393;SDS011;7795;47.986;11.868;2022-08-01T12:04:53;0.98;;;0.70;;
15393;SDS011;7795;47.986;11.868;2022-08-01T12:07:21;1.65;;;0.88;;
15393;SDS011;7795;47.986;11.868;2022-08-01T12:09:48;0.68;;;0.68;;
15393;SDS011;7795;47.986;11.868;2022-08-01T12:12:22;1.00;;;0.90;;
15393;SDS011;7795;47.986;11.868;2022-08-01T12:14:52;0.70;;;0.70;;
15393;SDS011;7795;47.986;11.868;2022-08-01T12:17:19;2.15;;;1.20;;
15393;SDS011;7795;47.986;11.868;2022-08-01T12:19:46;1.00;;;0.90;;
15393;SDS011;7795;47.986;11.868;2022-08-01T12:22:14;1.90;;;1.00;;
15393;SDS011;7795;47.986;11.868;2022-08-01T12:24:41;1.73;;;1.15;;
15393;SDS011;7795;47.986;11.868;2022-08-01T12:27:08;1.30;;;0.90;;
15393;SDS011;7795;47.986;11.868;2022-08-01T12:29:35;1.65;;;0.98;;
15393;SDS011;7795;47.986;11.868;2022-08-01T12:32:03;2.40;;;1.38;;
15393;SDS011;7795;47.986;11.868;2022-08-01T12:34:30;2.90;;;1.08;;
15393;SDS011;7795;47.986;11.868;2022-08-01T12:36:59;0.95;;;0.70;;
15393;SDS011;7795;47.986;11.868;2022-08-01T12:39:33;0.68;;;0.68;;
15393;SDS011;7795;47.986;11.868;2022-08-01T12:42:01;1.77;;;0.90;;
15393;SDS011;7795;47.986;11.868;2022-08-01T12:44:30;1.50;;;1.00;;
15393;SDS011;7795;47.986;11.868;2022-08-01T12:46:56;0.90;;;0.77;;
15393;SDS011;7795;47.986;11.868;2022-08-01T12:49:22;2.65;;;1.48;;
15393;SDS011;7795;47.986;11.868;2022-08-01T12:51:49;0.88;;;0.77;;
15393;SDS011;7795;47.986;11.868;2022-08-01T12:54:15;1.77;;;1.25;;
15393;SDS011;7795;47.986;11.868;2022-08-01T12:56:41;1.55;;;1.10;;
15393;SDS011;7795;47.986;11.868;2022-08-01T12:59:21;1.83;;;0.80;;
15393;SDS011;7795;47.986;11.868;2022-08-01T13:01:50;1.33;;;0.80;;
15393;SDS011;7795;47.986;11.868;2022-08-01T13:04:16;1.30;;;0.80;;
15393;SDS011;7795;47.986;11.868;2022-08-01T13:06:42;1.75;;;1.00;;
15393;SDS011;7795;47.986;11.868;2022-08-01T13:09:08;1.90;;;0.95;;
15393;SDS011;7795;47.986;11.868;2022-08-01T13:11:38;1.45;;;0.70;;
15393;SDS011;7795;47.986;11.868;2022-08-01T13:14:05;0.82;;;0.77;;
15393;SDS011;7795;47.986;11.868;2022-08-01T13:16:33;0.80;;;0.80;;
15393;SDS011;7795;47.986;11.868;2022-08-01T13:19:11;2.10;;;1.02;;
15393;SDS011;7795;47.986;11.868;2022-08-01T13:21:37;1.90;;;1.05;;
15393;SDS011;7795;47.986;11.868;2022-08-01T13:24:04;3.28;;;0.95;;
15393;SDS011;7795;47.986;11.868;2022-08-01T13:26:38;0.93;;;0.70;;
15393;SDS011;7795;47.986;11.868;2022-08-01T13:29:08;2.08;;;0.75;;
15393;SDS011;7795;47.986;11.868;2022-08-01T13:31:37;1.35;;;0.60;;
15393;SDS011;7795;47.986;11.868;2022-08-01T13:34:03;1.13;;;0.70;;
15393;SDS011;7795;47.986;11.868;2022-08-01T13:36:30;3.58;;;0.70;;
15393;SDS011;7795;47.986;11.868;2022-08-01T13:38:56;1.70;;;0.90;;
15393;SDS011;7795;47.986;11.868;2022-08-01T13:41:41;0.70;;;0.70;;
15393;SDS011;7795;47.986;11.868;2022-08-01T13:44:07;1.70;;;0.80;;
15393;SDS011;7795;47.986;11.868;2022-08-01T13:46:34;1.20;;;0.70;;
15393;SDS011;7795;47.986;11.868;2022-08-01T13:49:01;1.92;;;0.88;;
15393;SDS011;7795;47.986;11.868;2022-08-01T13:51:27;1.20;;;1.10;;
15393;SDS011;7795;47.986;11.868;2022-08-01T13:53:53;1.83;;;0.80;;
15393;SDS011;7795;47.986;11.868;2022-08-01T13:56:19;1.20;;;0.90;;
15393;SDS011;7795;47.986;11.868;2022-08-01T13:58:45;1.40;;;0.70;;
15393;SDS011;7795;47.986;11.868;2022-08-01T14:01:11;1.20;;;0.68;;
15393;SDS011;7795;47.986;11.868;2022-08-01T14:03:37;0.50;;;0.50;;
15393;SDS011;7795;47.986;11.868;2022-08-01T14:06:04;1.33;;;0.90;;
15393;SDS011;7795;47.986;11.868;2022-08-01T14:08:30;2.08;;;0.82;;
15393;SDS011;7795;47.986;11.868;2022-08-01T14:10:56;0.85;;;0.82;;
15393;SDS011;7795;47.986;11.868;2022-08-01T14:13:23;1.27;;;0.82;;
15393;SDS011;7795;47.986;11.868;2022-08-01T14:15:49;0.80;;;0.77;;
15393;SDS011;7795;47.986;11.868;2022-08-01T14:18:15;0.98;;;0.70;;
15393;SDS011;7795;47.986;11.868;2022-08-01T14:20:41;1.85;;;0.63;;
15393;SDS011;7795;47.986;11.868;2022-08-01T14:23:08;3.08;;;0.88;;
15393;SDS011;7795;47.986;11.868;2022-08-01T14:25:34;1.05;;;0.60;;
15393;SDS011;7795;47.986;11.868;2022-08-01T14:28:00;1.85;;;0.80;;
15393;SDS011;7795;47.986;11.868;2022-08-01T14:30:26;3.38;;;0.85;;
15393;SDS011;7795;47.986;11.868;2022-08-01T14:32:51;1.83;;;0.77;;
15393;SDS011;7795;47.986;11.868;2022-08-01T14:35:17;2.53;;;0.70;;
15393;SDS011;7795;47.986;11.868;2022-08-01T14:37:43;2.10;;;0.80;;
15393;SDS011;7795;47.986;11.868;2022-08-01T14:40:10;2.42;;;0.60;;
15393;SDS011;7795;47.986;11.868;2022-08-01T14:42:36;2.05;;;0.50;;
15393;SDS011;7795;47.986;11.868;2022-08-01T14:45:03;1.00;;;0.63;;
15393;SDS011;7795;47.986;11.868;2022-08-01T14:47:33;2.25;;;0.60;;
15393;SDS011;7795;47.986;11.868;2022-08-01T14:49:59;0.60;;;0.60;;
15393;SDS011;7795;47.986;11.868;2022-08-01T14:52:25;2.75;;;0.68;;
15393;SDS011;7795;47.986;11.868;2022-08-01T14:54:51;1.48;;;0.52;;
15393;SDS011;7795;47.986;11.868;2022-08-01T14:57:18;0.90;;;0.55;;
15393;SDS011;7795;47.986;11.868;2022-08-01T14:59:44;0.63;;;0.60;;
15393;SDS011;7795;47.986;11.868;2022-08-01T15:02:11;1.83;;;0.60;;
15393;SDS011;7795;47.986;11.868;2022-08-01T15:04:38;0.70;;;0.47;;
15393;SDS011;7795;47.986;11.868;2022-08-01T15:07:04;0.80;;;0.60;;
15393;SDS011;7795;47.986;11.868;2022-08-01T15:09:30;1.95;;;0.80;;
15393;SDS011;7795;47.986;11.868;2022-08-01T15:11:55;1.10;;;0.70;;